Time;durP1;ratioP1;P1;durP2;ratioP2;P2;SDS_P1;SDS_P2;PMS_P1;PMS_P2;Temp;Humidity;BMP_temperature;BMP_pressure;BME280_temperature;BME280_humidity;BME280_pressure;Samples;Min_cycle;Max_cycle;Signal;HPM_P1;HPM_P2
2023/07/10 00:00:24;;;;;;;13.75;3.95;;;;;;;;;;5047406;28;20053;-64
2023/07/10 00:03:10;;;;;;;13.48;4.60;;;;;;;;;;5042531;28;20049;-66
2023/07/10 00:05:36;;;;;;;14.65;4.15;;;;;;;;;;5042265;28;20052;-65
2023/07/10 00:08:02;;;;;;;14.10;4.45;;;;;;;;;;5042727;28;20055;-65
2023/07/10 00:10:30;;;;;;;14.43;4.45;;;;;;;;;;5045246;28;20052;-65
2023/07/10 00:12:56;;;;;;;11.10;3.83;;;;;;;;;;5031761;28;20906;-67
2023/07/10 00:15:23;;;;;;;10.70;4.47;;;;;;;;;;5047438;28;20049;-67
2023/07/10 00:17:50;;;;;;;16.45;4.60;;;;;;;;;;5041238;28;20053;-66
2023/07/10 00:20:26;;;;;;;10.85;4.20;;;;;;;;;;5044602;28;20045;-66
2023/07/10 00:22:51;;;;;;;13.88;4.43;;;;;;;;;;5047502;28;20063;-72
2023/07/10 00:25:18;;;;;;;15.32;4.45;;;;;;;;;;5042692;28;20079;-65
2023/07/10 00:27:47;;;;;;;11.55;4.13;;;;;;;;;;5043306;28;20053;-66
2023/07/10 00:30:19;;;;;;;13.93;4.30;;;;;;;;;;5048585;28;20498;-65
2023/07/10 00:32:47;;;;;;;17.75;4.30;;;;;;;;;;5046443;28;20045;-65
2023/07/10 00:35:17;;;;;;;19.75;4.63;;;;;;;;;;5046369;28;20049;-67
2023/07/10 00:37:49;;;;;;;14.30;4.53;;;;;;;;;;5041389;28;20467;-64
2023/07/10 00:40:22;;;;;;;16.52;4.38;;;;;;;;;;5041220;28;20057;-67
2023/07/10 00:43:11;;;;;;;14.55;4.68;;;;;;;;;;5042472;28;20124;-66
2023/07/10 00:45:37;;;;;;;14.60;4.13;;;;;;;;;;5044012;28;20047;-66
2023/07/10 00:48:26;;;;;;;13.70;4.30;;;;;;;;;;5043981;28;20463;-64
2023/07/10 00:50:53;;;;;;;15.93;4.60;;;;;;;;;;5046736;28;20489;-65
2023/07/10 00:53:29;;;;;;;16.77;4.75;;;;;;;;;;5045944;28;20053;-66
2023/07/10 00:56:00;;;;;;;15.35;4.55;;;;;;;;;;5041229;28;20516;-63
2023/07/10 00:58:41;;;;;;;15.05;4.70;;;;;;;;;;5043575;28;20060;-68
2023/07/10 01:01:16;;;;;;;15.50;4.78;;;;;;;;;;5041538;28;20068;-63
2023/07/10 01:03:43;;;;;;;;;;;;;;;;;;5046154;28;20504;-67
2023/07/10 01:06:14;;;;;;;18.00;4.50;;;;;;;;;;5039844;28;19925;-64
2023/07/10 01:08:46;;;;;;;15.05;4.55;;;;;;;;;;5047902;28;20520;-64
2023/07/10 01:11:12;;;;;;;18.23;4.25;;;;;;;;;;5038538;28;20084;-67
2023/07/10 01:13:41;;;;;;;18.52;5.00;;;;;;;;;;5046222;28;20068;-62
2023/07/10 01:16:08;;;;;;;15.52;4.32;;;;;;;;;;5044617;28;20037;-64
2023/07/10 01:18:35;;;;;;;16.67;5.47;;;;;;;;;;5039302;28;20044;-64
2023/07/10 01:21:26;;;;;;;17.08;4.47;;;;;;;;;;5046722;28;20060;-62
2023/07/10 01:23:55;;;;;;;15.90;4.57;;;;;;;;;;5040198;28;20172;-64
2023/07/10 01:26:22;;;;;;;10.48;4.82;;;;;;;;;;5038933;28;20040;-63
2023/07/10 01:28:48;;;;;;;15.63;4.70;;;;;;;;;;5047129;28;20056;-62
2023/07/10 01:31:17;;;;;;;9.80;4.82;;;;;;;;;;5042166;28;20072;-64
2023/07/10 01:34:10;;;;;;;20.42;5.25;;;;;;;;;;5043889;28;20557;-69
2023/07/10 01:36:40;;;;;;;13.23;4.72;;;;;;;;;;5033378;28;20072;-63
2023/07/10 01:39:34;;;;;;;19.08;5.30;;;;;;;;;;5042750;28;20068;-63
2023/07/10 01:42:00;;;;;;;17.27;4.85;;;;;;;;;;5037355;28;20053;-64
2023/07/10 01:44:35;;;;;;;18.02;4.82;;;;;;;;;;5040585;28;20052;-63
2023/07/10 01:47:04;;;;;;;12.55;5.03;;;;;;;;;;5031682;28;20037;-63
2023/07/10 01:49:51;;;;;;;15.88;5.00;;;;;;;;;;5038849;28;20056;-63
2023/07/10 01:52:19;;;;;;;19.83;5.20;;;;;;;;;;5042097;28;20053;-64
2023/07/10 01:54:45;;;;;;;12.85;4.57;;;;;;;;;;5041666;28;20056;-64
2023/07/10 01:57:14;;;;;;;16.15;4.55;;;;;;;;;;5040335;28;20070;-64
2023/07/10 01:59:40;;;;;;;14.23;4.60;;;;;;;;;;5032369;28;20068;-63
2023/07/10 02:02:07;;;;;;;13.73;4.40;;;;;;;;;;5037131;28;20052;-63
2023/07/10 02:04:33;;;;;;;13.63;4.70;;;;;;;;;;5045930;28;20443;-63
2023/07/10 02:07:01;;;;;;;12.95;5.10;;;;;;;;;;5036387;28;20060;-64
2023/07/10 02:09:29;;;;;;;13.00;4.97;;;;;;;;;;5038788;28;20049;-65
2023/07/10 02:11:55;;;;;;;12.00;4.72;;;;;;;;;;5033168;28;20054;-65
2023/07/10 02:14:21;;;;;;;14.73;5.07;;;;;;;;;;5043745;28;20408;-65
2023/07/10 02:16:48;;;;;;;14.65;5.10;;;;;;;;;;5043600;28;20671;-63
2023/07/10 02:19:14;;;;;;;14.05;5.03;;;;;;;;;;5046354;28;20110;-63
2023/07/10 02:21:42;;;;;;;12.40;5.07;;;;;;;;;;5039717;28;20049;-65
2023/07/10 02:24:08;;;;;;;17.20;5.15;;;;;;;;;;5039444;28;20520;-64
2023/07/10 02:26:34;;;;;;;13.50;5.40;;;;;;;;;;5041015;28;20053;-64
2023/07/10 02:29:00;;;;;;;11.27;4.97;;;;;;;;;;5044698;28;20290;-66
2023/07/10 02:31:27;;;;;;;17.13;5.50;;;;;;;;;;5034816;28;20494;-64
2023/07/10 02:33:55;;;;;;;14.77;5.72;;;;;;;;;;5043928;28;20413;-63
2023/07/10 02:36:26;;;;;;;14.10;5.50;;;;;;;;;;5042623;28;20827;-64
2023/07/10 02:38:51;;;;;;;16.20;5.15;;;;;;;;;;5039075;28;20267;-64
2023/07/10 02:41:18;;;;;;;12.90;5.22;;;;;;;;;;5036861;28;20060;-64
2023/07/10 02:43:43;;;;;;;12.65;5.32;;;;;;;;;;5041392;28;20705;-66
2023/07/10 02:46:09;;;;;;;15.18;5.53;;;;;;;;;;5047886;28;20303;-66
2023/07/10 02:48:36;;;;;;;14.60;5.68;;;;;;;;;;5043526;28;20142;-65
2023/07/10 02:51:02;;;;;;;18.05;5.45;;;;;;;;;;5040651;28;20049;-64
2023/07/10 02:53:28;;;;;;;15.80;6.03;;;;;;;;;;5043049;28;20065;-63
2023/07/10 02:55:54;;;;;;;16.55;5.55;;;;;;;;;;5042428;28;20068;-64
2023/07/10 02:58:19;;;;;;;16.70;5.55;;;;;;;;;;5040253;28;20455;-62
2023/07/10 03:00:55;;;;;;;14.95;6.15;;;;;;;;;;5043717;28;20086;-64
2023/07/10 03:03:21;;;;;;;14.18;6.57;;;;;;;;;;5044206;28;20511;-64
2023/07/10 03:05:53;;;;;;;14.75;5.65;;;;;;;;;;5041553;28;20056;-65
2023/07/10 03:08:18;;;;;;;15.43;6.30;;;;;;;;;;5040443;28;20045;-64
2023/07/10 03:10:44;;;;;;;20.38;6.18;;;;;;;;;;5039964;28;20049;-64
2023/07/10 03:13:10;;;;;;;14.15;5.85;;;;;;;;;;5036806;28;20106;-66
2023/07/10 03:15:36;;;;;;;15.02;5.72;;;;;;;;;;5040405;28;20056;-63
2023/07/10 03:18:02;;;;;;;18.45;6.53;;;;;;;;;;5044182;28;20451;-63
2023/07/10 03:20:28;;;;;;;13.52;6.00;;;;;;;;;;5044998;28;20053;-62
2023/07/10 03:22:53;;;;;;;11.30;5.93;;;;;;;;;;5049482;28;20053;-63
2023/07/10 03:25:20;;;;;;;16.33;6.20;;;;;;;;;;5045455;28;20729;-62
2023/07/10 03:27:48;;;;;;;13.40;6.00;;;;;;;;;;5043628;28;20072;-62
2023/07/10 03:30:15;;;;;;;13.40;6.03;;;;;;;;;;5040639;28;20060;-66
2023/07/10 03:32:40;;;;;;;17.17;5.85;;;;;;;;;;5047749;28;20033;-62
2023/07/10 03:35:06;;;;;;;17.92;6.30;;;;;;;;;;5041778;28;20060;-65
2023/07/10 03:37:32;;;;;;;16.50;5.70;;;;;;;;;;5048825;28;20049;-65
2023/07/10 03:39:59;;;;;;;13.20;5.60;;;;;;;;;;5043510;28;20122;-66
2023/07/10 03:42:25;;;;;;;14.93;5.88;;;;;;;;;;5046118;28;20049;-61
2023/07/10 03:44:51;;;;;;;15.60;5.95;;;;;;;;;;5046468;28;20056;-63
2023/07/10 03:47:17;;;;;;;13.20;5.88;;;;;;;;;;5040959;28;20041;-62
2023/07/10 03:49:43;;;;;;;13.23;5.70;;;;;;;;;;5041793;28;20057;-62
2023/07/10 03:52:09;;;;;;;15.63;6.10;;;;;;;;;;5042690;28;20519;-63
2023/07/10 03:54:36;;;;;;;14.98;6.38;;;;;;;;;;5044420;28;20048;-63
2023/07/10 03:57:02;;;;;;;13.20;5.78;;;;;;;;;;5043095;28;20047;-62
2023/07/10 03:59:29;;;;;;;13.75;5.80;;;;;;;;;;5036888;28;20037;-63
2023/07/10 04:01:55;;;;;;;14.65;5.90;;;;;;;;;;5045806;28;20045;-62
2023/07/10 04:04:21;;;;;;;18.95;6.00;;;;;;;;;;5037702;28;20048;-62
2023/07/10 04:06:46;;;;;;;14.18;5.22;;;;;;;;;;5040836;28;20053;-64
2023/07/10 04:09:12;;;;;;;12.68;4.95;;;;;;;;;;5022221;28;20061;-63
2023/07/10 04:11:38;;;;;;;17.85;5.82;;;;;;;;;;5039165;28;20395;-64
2023/07/10 04:14:04;;;;;;;10.30;5.32;;;;;;;;;;5041050;28;20037;-66
2023/07/10 04:16:30;;;;;;;16.35;5.85;;;;;;;;;;5045851;28;20080;-62
2023/07/10 04:18:56;;;;;;;15.52;5.88;;;;;;;;;;5040939;28;20041;-65
2023/07/10 04:21:30;;;;;;;13.15;6.00;;;;;;;;;;5042684;28;20045;-64
2023/07/10 04:23:57;;;;;;;13.55;5.82;;;;;;;;;;5039561;28;20088;-64
2023/07/10 04:26:31;;;;;;;15.18;6.05;;;;;;;;;;5034868;28;20049;-63
2023/07/10 04:29:00;;;;;;;13.45;5.63;;;;;;;;;;5041737;28;20126;-64
2023/07/10 04:31:26;;;;;;;12.75;5.68;;;;;;;;;;5042973;28;20513;-67
2023/07/10 04:33:53;;;;;;;15.15;6.00;;;;;;;;;;5046470;28;20056;-64
2023/07/10 04:36:20;;;;;;;17.30;6.45;;;;;;;;;;5038144;28;20072;-64
2023/07/10 04:38:47;;;;;;;18.73;6.32;;;;;;;;;;5041698;28;20404;-63
2023/07/10 04:41:15;;;;;;;15.35;6.35;;;;;;;;;;5019212;28;20045;-63
2023/07/10 04:43:41;;;;;;;15.57;5.60;;;;;;;;;;5044013;28;20045;-65
2023/07/10 04:46:10;;;;;;;16.52;5.78;;;;;;;;;;5047217;28;20049;-65
2023/07/10 04:48:36;;;;;;;17.67;6.35;;;;;;;;;;5039824;28;20064;-64
2023/07/10 04:51:04;;;;;;;13.98;6.15;;;;;;;;;;5039689;28;20082;-63
2023/07/10 04:53:32;;;;;;;18.75;7.07;;;;;;;;;;5037337;28;20057;-63
2023/07/10 04:56:00;;;;;;;18.02;6.47;;;;;;;;;;5040133;28;20135;-63
2023/07/10 04:58:28;;;;;;;18.77;6.65;;;;;;;;;;5038621;28;20325;-63
2023/07/10 05:00:57;;;;;;;18.17;6.07;;;;;;;;;;5036724;28;20515;-64
2023/07/10 05:03:24;;;;;;;15.30;6.22;;;;;;;;;;5039076;28;20049;-64
2023/07/10 05:05:51;;;;;;;19.25;6.65;;;;;;;;;;5041749;28;20041;-64
2023/07/10 05:08:17;;;;;;;12.43;6.00;;;;;;;;;;5041902;28;20374;-64
2023/07/10 05:10:43;;;;;;;16.05;6.15;;;;;;;;;;5044532;28;20049;-63
2023/07/10 05:13:39;;;;;;;15.13;5.80;;;;;;;;;;5036612;28;20109;-62
2023/07/10 05:16:05;;;;;;;18.42;6.65;;;;;;;;;;5049943;28;20055;-66
2023/07/10 05:19:26;;;;;;;17.80;6.18;;;;;;;;;;5029484;28;20048;-63
2023/07/10 05:23:06;;;;;;;19.33;6.63;;;;;;;;;;5036472;28;20433;-64
2023/07/10 05:26:47;;;;;;;13.27;5.75;;;;;;;;;;5037688;28;20041;-66
2023/07/10 05:29:46;;;;;;;18.30;7.07;;;;;;;;;;5027012;28;20563;-62
2023/07/10 05:32:52;;;;;;;20.60;6.70;;;;;;;;;;5042134;28;20410;-60
2023/07/10 05:36:32;;;;;;;21.80;7.10;;;;;;;;;;5037734;28;20053;-66
2023/07/10 05:40:13;;;;;;;18.27;7.50;;;;;;;;;;5031113;28;20164;-64
2023/07/10 05:43:53;;;;;;;20.65;6.90;;;;;;;;;;5035882;28;20157;-61
2023/07/10 05:47:33;;;;;;;14.40;6.38;;;;;;;;;;5040153;28;20408;-64
2023/07/10 05:51:14;;;;;;;15.40;6.28;;;;;;;;;;5046528;28;20273;-63
2023/07/10 05:54:54;;;;;;;21.02;6.38;;;;;;;;;;5039637;28;20144;-71
2023/07/10 05:58:35;;;;;;;21.30;5.93;;;;;;;;;;5032972;28;20102;-65
2023/07/10 06:02:15;;;;;;;22.58;6.18;;;;;;;;;;5031733;28;20417;-63
2023/07/10 06:05:55;;;;;;;15.25;5.53;;;;;;;;;;5035130;28;20049;-63
2023/07/10 06:09:36;;;;;;;17.48;6.07;;;;;;;;;;5044854;28;20048;-64
2023/07/10 06:13:16;;;;;;;14.77;5.30;;;;;;;;;;5030711;28;20053;-64
2023/07/10 06:16:56;;;;;;;12.90;5.63;;;;;;;;;;5032791;28;20449;-68
2023/07/10 06:20:37;;;;;;;21.25;6.07;;;;;;;;;;5040367;28;20040;-65
2023/07/10 06:24:18;;;;;;;18.67;5.15;;;;;;;;;;5034403;28;20492;-66
2023/07/10 06:27:58;;;;;;;20.67;5.85;;;;;;;;;;5032330;28;20047;-64
2023/07/10 06:31:40;;;;;;;17.58;4.72;;;;;;;;;;5034563;28;20061;-62
2023/07/10 06:35:20;;;;;;;16.23;5.10;;;;;;;;;;5033808;28;20120;-64
2023/07/10 06:39:00;;;;;;;20.20;5.32;;;;;;;;;;5033516;28;20052;-63
2023/07/10 06:42:41;;;;;;;16.85;4.90;;;;;;;;;;5035205;28;20055;-63
2023/07/10 06:46:21;;;;;;;15.98;4.85;;;;;;;;;;5038520;28;20060;-63
2023/07/10 06:50:01;;;;;;;19.35;5.63;;;;;;;;;;5043344;28;20048;-67
2023/07/10 06:53:42;;;;;;;16.73;5.53;;;;;;;;;;5043055;28;20509;-65
2023/07/10 06:57:23;;;;;;;16.40;5.55;;;;;;;;;;5035863;28;20063;-62
2023/07/10 07:01:03;;;;;;;15.95;5.43;;;;;;;;;;5036860;28;20454;-64
2023/07/10 07:04:43;;;;;;;22.35;4.90;;;;;;;;;;5038873;28;20043;-65
2023/07/10 07:08:24;;;;;;;20.33;5.68;;;;;;;;;;5035807;28;20113;-64
2023/07/10 07:12:04;;;;;;;14.50;5.25;;;;;;;;;;5032104;28;20045;-65
2023/07/10 07:15:45;;;;;;;18.70;5.97;;;;;;;;;;5036744;28;20411;-63
2023/07/10 07:19:26;;;;;;;16.55;5.28;;;;;;;;;;5035312;28;20048;-65
2023/07/10 07:23:06;;;;;;;16.23;5.32;;;;;;;;;;5041945;28;20052;-62
2023/07/10 07:26:46;;;;;;;13.73;5.20;;;;;;;;;;5035380;28;20076;-63
2023/07/10 07:30:27;;;;;;;12.32;5.47;;;;;;;;;;5041344;28;20040;-64
2023/07/10 07:34:07;;;;;;;22.02;6.30;;;;;;;;;;5028445;28;20163;-63
2023/07/10 07:37:47;;;;;;;14.70;5.47;;;;;;;;;;5020035;28;20811;-64
2023/07/10 07:41:28;;;;;;;16.25;5.55;;;;;;;;;;5038426;28;20051;-62
2023/07/10 07:45:08;;;;;;;18.38;5.70;;;;;;;;;;5038130;28;20512;-63
2023/07/10 07:48:48;;;;;;;17.70;5.55;;;;;;;;;;5022895;28;20063;-64
2023/07/10 07:52:29;;;;;;;15.60;5.47;;;;;;;;;;5031982;28;20079;-63
2023/07/10 07:56:10;;;;;;;15.02;5.63;;;;;;;;;;5037666;28;20045;-66
2023/07/10 07:59:50;;;;;;;17.33;6.05;;;;;;;;;;5018732;28;20064;-64
2023/07/10 08:03:30;;;;;;;14.43;5.00;;;;;;;;;;5019495;28;20053;-66
2023/07/10 08:07:11;;;;;;;20.63;5.38;;;;;;;;;;5026865;28;21646;-63
2023/07/10 08:10:51;;;;;;;16.95;4.78;;;;;;;;;;5027241;28;20044;-65
2023/07/10 08:14:32;;;;;;;23.73;5.18;;;;;;;;;;5034624;28;20520;-64
2023/07/10 08:18:12;;;;;;;16.73;5.07;;;;;;;;;;5022296;28;20678;-65
2023/07/10 08:21:57;;;;;;;17.00;4.50;;;;;;;;;;5016785;28;21229;-64
2023/07/10 08:25:33;;;;;;;17.63;4.68;;;;;;;;;;5029208;28;20054;-66
2023/07/10 08:29:13;;;;;;;16.70;4.50;;;;;;;;;;5036230;28;20063;-64
2023/07/10 08:32:54;;;;;;;18.05;4.45;;;;;;;;;;5037200;28;20075;-63
2023/07/10 08:36:35;;;;;;;13.27;4.43;;;;;;;;;;5040002;28;20047;-64
2023/07/10 08:40:15;;;;;;;19.42;5.50;;;;;;;;;;5042034;28;20048;-65
2023/07/10 08:44:14;;;;;;;16.70;4.72;;;;;;;;;;5041321;28;20045;-65
2023/07/10 08:47:54;;;;;;;22.10;4.63;;;;;;;;;;5038823;28;20505;-64
2023/07/10 08:51:19;;;;;;;16.90;4.68;;;;;;;;;;5038230;28;20072;-64
2023/07/10 08:54:59;;;;;;;18.52;5.00;;;;;;;;;;5033665;28;20053;-63
2023/07/10 08:58:41;;;;;;;13.82;4.50;;;;;;;;;;5036940;28;20098;-65
2023/07/10 09:02:21;;;;;;;13.07;4.28;;;;;;;;;;5033071;28;20061;-62
2023/07/10 09:06:01;;;;;;;16.15;4.72;;;;;;;;;;5037200;28;20056;-66
2023/07/10 09:09:08;;;;;;;17.38;4.55;;;;;;;;;;5037916;28;20053;-65
2023/07/10 09:12:14;;;;;;;15.55;4.93;;;;;;;;;;5039883;28;20049;-63
2023/07/10 09:15:55;;;;;;;17.38;4.72;;;;;;;;;;5031041;28;20048;-65
2023/07/10 09:19:41;;;;;;;16.25;4.40;;;;;;;;;;5033617;28;20095;-65
2023/07/10 09:23:22;;;;;;;22.83;4.90;;;;;;;;;;5032998;28;20417;-65
2023/07/10 09:27:08;;;;;;;17.17;4.55;;;;;;;;;;5038727;28;20052;-65
2023/07/10 09:30:50;;;;;;;22.30;4.38;;;;;;;;;;5034751;28;20560;-64
2023/07/10 09:34:31;;;;;;;22.20;4.78;;;;;;;;;;5028829;28;20049;-66
2023/07/10 09:38:15;;;;;;;20.05;4.80;;;;;;;;;;5037377;28;20045;-65
2023/07/10 09:41:58;;;;;;;15.93;4.72;;;;;;;;;;5034915;28;20049;-70
2023/07/10 09:45:38;;;;;;;15.52;4.50;;;;;;;;;;5037478;28;20481;-67
2023/07/10 09:49:18;;;;;;;20.45;4.25;;;;;;;;;;5035933;28;20094;-66
2023/07/10 09:52:59;;;;;;;17.58;4.20;;;;;;;;;;5034625;28;20041;-63
2023/07/10 09:56:39;;;;;;;18.60;4.80;;;;;;;;;;5041763;28;20049;-66
2023/07/10 10:00:21;;;;;;;21.88;5.05;;;;;;;;;;5042555;28;20044;-65
2023/07/10 10:04:04;;;;;;;14.00;4.63;;;;;;;;;;5035676;28;20049;-64
2023/07/10 10:07:46;;;;;;;19.08;4.72;;;;;;;;;;5033593;28;20049;-63
2023/07/10 10:11:26;;;;;;;21.88;4.82;;;;;;;;;;5038694;28;20106;-64
2023/07/10 10:15:12;;;;;;;23.13;5.00;;;;;;;;;;5033848;28;20049;-65
2023/07/10 10:18:35;;;;;;;19.00;4.82;;;;;;;;;;5033686;28;20064;-63
2023/07/10 10:22:16;;;;;;;18.10;4.38;;;;;;;;;;5032659;28;20099;-68
2023/07/10 10:25:56;;;;;;;17.83;4.80;;;;;;;;;;5036814;28;20083;-65
2023/07/10 10:29:12;;;;;;;21.58;4.90;;;;;;;;;;5036542;28;20061;-64
2023/07/10 10:33:04;;;;;;;20.83;4.78;;;;;;;;;;5035167;28;21239;-68
2023/07/10 10:36:48;;;;;;;16.63;4.70;;;;;;;;;;5030446;28;20048;-66
2023/07/10 10:40:31;;;;;;;11.68;4.18;;;;;;;;;;5039510;28;20045;-65
2023/07/10 10:43:31;;;;;;;16.75;4.60;;;;;;;;;;5035881;28;20377;-64
2023/07/10 10:47:15;;;;;;;15.80;4.20;;;;;;;;;;5031491;28;20083;-64
2023/07/10 10:50:40;;;;;;;15.82;4.95;;;;;;;;;;5034568;28;20068;-64
2023/07/10 10:54:24;;;;;;;14.02;3.80;;;;;;;;;;5009598;28;20239;-63
2023/07/10 10:58:04;;;;;;;18.08;4.35;;;;;;;;;;5025235;28;20056;-70
2023/07/10 11:01:06;;;;;;;17.05;4.35;;;;;;;;;;5037616;28;20045;-65
2023/07/10 11:04:52;;;;;;;24.38;5.00;;;;;;;;;;5036942;28;20056;-64
2023/07/10 11:08:32;;;;;;;17.85;4.60;;;;;;;;;;5028964;28;20049;-65
2023/07/10 11:12:12;;;;;;;24.50;4.78;;;;;;;;;;5029874;28;20052;-66
2023/07/10 11:15:01;;;;;;;19.98;4.47;;;;;;;;;;5033472;28;20484;-67
2023/07/10 11:17:28;;;;;;;15.95;4.57;;;;;;;;;;5035755;28;20196;-63
2023/07/10 11:19:55;;;;;;;12.07;4.60;;;;;;;;;;5032897;28;20049;-62
2023/07/10 11:22:31;;;;;;;17.45;4.45;;;;;;;;;;5036422;28;20052;-63
2023/07/10 11:25:01;;;;;;;15.20;4.10;;;;;;;;;;5036990;28;20049;-63
2023/07/10 11:27:32;;;;;;;15.20;3.78;;;;;;;;;;5031074;28;20059;-64
2023/07/10 11:30:05;;;;;;;20.63;5.07;;;;;;;;;;5035910;28;20049;-63
2023/07/10 11:32:53;;;;;;;16.00;4.60;;;;;;;;;;5036732;28;20099;-63
2023/07/10 11:35:21;;;;;;;16.75;4.63;;;;;;;;;;5039427;28;20049;-62
2023/07/10 11:37:48;;;;;;;20.52;4.90;;;;;;;;;;5036400;28;20409;-63
2023/07/10 11:40:23;;;;;;;17.02;4.13;;;;;;;;;;5033935;28;20374;-66
2023/07/10 11:42:50;;;;;;;15.30;4.78;;;;;;;;;;5038396;28;20053;-65
2023/07/10 11:45:16;;;;;;;15.20;4.35;;;;;;;;;;5039650;28;20049;-64
2023/07/10 11:47:46;;;;;;;20.80;4.78;;;;;;;;;;5043351;28;20121;-64
2023/07/10 11:50:22;;;;;;;26.15;4.72;;;;;;;;;;5041318;28;20252;-62
2023/07/10 11:53:06;;;;;;;18.63;4.32;;;;;;;;;;5041629;28;20057;-62
2023/07/10 11:55:42;;;;;;;21.52;4.18;;;;;;;;;;5044315;28;20048;-63
2023/07/10 11:58:22;;;;;;;20.30;4.68;;;;;;;;;;5042339;28;20045;-63
2023/07/10 12:00:48;;;;;;;19.27;4.47;;;;;;;;;;5044955;28;20045;-63
2023/07/10 12:03:14;;;;;;;17.48;4.35;;;;;;;;;;5044270;28;20053;-65
2023/07/10 12:05:40;;;;;;;19.27;4.85;;;;;;;;;;5042450;28;20500;-66
2023/07/10 12:08:14;;;;;;;20.83;4.78;;;;;;;;;;5037656;28;20045;-66
2023/07/10 12:10:49;;;;;;;18.27;4.13;;;;;;;;;;5044127;28;20040;-64
2023/07/10 12:13:23;;;;;;;13.75;3.85;;;;;;;;;;5043879;28;20057;-64
2023/07/10 12:15:52;;;;;;;20.23;4.20;;;;;;;;;;5039030;28;20073;-63
2023/07/10 12:18:24;;;;;;;13.95;4.05;;;;;;;;;;5037704;28;20057;-66
2023/07/10 12:20:52;;;;;;;21.42;4.40;;;;;;;;;;5039105;28;20045;-63
2023/07/10 12:23:18;;;;;;;19.92;4.30;;;;;;;;;;5039908;28;20493;-64
2023/07/10 12:25:54;;;;;;;12.88;4.10;;;;;;;;;;5046270;28;20044;-65
2023/07/10 12:28:23;;;;;;;13.80;4.00;;;;;;;;;;5026194;28;20055;-65
2023/07/10 12:30:51;;;;;;;14.35;3.78;;;;;;;;;;5028061;28;20459;-65
2023/07/10 12:33:35;;;;;;;15.13;4.00;;;;;;;;;;5040515;28;20258;-65
2023/07/10 12:36:18;;;;;;;14.48;3.65;;;;;;;;;;5036443;28;20504;-65
2023/07/10 12:38:45;;;;;;;13.52;3.92;;;;;;;;;;5038868;28;20056;-63
2023/07/10 12:41:12;;;;;;;15.70;3.92;;;;;;;;;;5032017;28;20053;-64
2023/07/10 12:43:37;;;;;;;23.10;4.55;;;;;;;;;;5039331;28;20052;-59
2023/07/10 12:46:30;;;;;;;18.98;3.78;;;;;;;;;;5039255;28;20483;-66
2023/07/10 12:49:00;;;;;;;20.98;3.78;;;;;;;;;;5036506;28;20187;-62
2023/07/10 12:51:31;;;;;;;16.77;3.67;;;;;;;;;;5018011;28;20057;-62
2023/07/10 12:54:01;;;;;;;21.67;4.03;;;;;;;;;;5038329;28;20060;-64
2023/07/10 12:56:35;;;;;;;21.70;4.07;;;;;;;;;;5040861;28;20159;-63
2023/07/10 12:59:16;;;;;;;19.42;3.88;;;;;;;;;;5034162;28;20057;-64
2023/07/10 13:01:51;;;;;;;19.77;4.25;;;;;;;;;;5035228;28;20068;-63
2023/07/10 13:04:21;;;;;;;19.55;4.40;;;;;;;;;;5039216;28;20580;-62
2023/07/10 13:07:07;;;;;;;18.17;3.92;;;;;;;;;;5036385;28;20460;-64
2023/07/10 13:11:06;;;;;;;16.33;3.85;;;;;;;;;;5030869;28;20064;-62
2023/07/10 13:14:46;;;;;;;17.58;3.97;;;;;;;;;;5037041;28;21242;-64
2023/07/10 13:18:35;;;;;;;17.10;3.78;;;;;;;;;;5032044;28;20458;-65
2023/07/10 13:22:16;;;;;;;18.52;3.80;;;;;;;;;;5024392;28;20055;-64
2023/07/10 13:25:56;;;;;;;16.83;3.92;;;;;;;;;;5030553;28;20524;-64
2023/07/10 13:29:37;;;;;;;18.70;3.72;;;;;;;;;;5037113;28;20132;-60
2023/07/10 13:33:18;;;;;;;22.83;4.07;;;;;;;;;;5038166;28;20056;-62
2023/07/10 13:36:58;;;;;;;15.68;3.88;;;;;;;;;;5032395;28;20049;-64
2023/07/10 13:40:38;;;;;;;15.52;3.63;;;;;;;;;;5028083;28;20436;-61
2023/07/10 13:44:18;;;;;;;17.58;3.80;;;;;;;;;;5038633;28;20052;-61
2023/07/10 13:48:00;;;;;;;16.58;4.10;;;;;;;;;;5036276;28;20053;-63
2023/07/10 13:51:40;;;;;;;20.05;4.05;;;;;;;;;;5030824;28;20126;-61
2023/07/10 13:55:21;;;;;;;16.42;3.83;;;;;;;;;;5034595;28;20068;-61
2023/07/10 13:59:02;;;;;;;19.50;4.20;;;;;;;;;;5027862;28;20046;-62
2023/07/10 14:02:51;;;;;;;16.35;4.38;;;;;;;;;;5034475;28;20509;-64
2023/07/10 14:06:34;;;;;;;18.38;4.82;;;;;;;;;;5032200;28;20067;-62
2023/07/10 14:10:14;;;;;;;27.63;4.75;;;;;;;;;;5035940;28;20098;-65
2023/07/10 14:13:55;;;;;;;15.20;3.97;;;;;;;;;;5035643;28;20072;-63
2023/07/10 14:17:36;;;;;;;18.88;3.85;;;;;;;;;;5029109;28;20523;-66
2023/07/10 14:21:16;;;;;;;17.77;3.90;;;;;;;;;;5031136;28;20528;-61
2023/07/10 14:24:57;;;;;;;21.95;3.92;;;;;;;;;;5029415;28;20073;-66
2023/07/10 14:28:37;;;;;;;18.15;4.18;;;;;;;;;;5031653;28;20051;-66
2023/07/10 14:32:17;;;;;;;20.48;4.38;;;;;;;;;;5034445;28;20515;-62
2023/07/10 14:35:58;;;;;;;13.98;3.88;;;;;;;;;;5035804;28;20087;-62
2023/07/10 14:39:38;;;;;;;19.23;4.15;;;;;;;;;;5036260;28;20037;-62
2023/07/10 14:43:18;;;;;;;16.95;3.95;;;;;;;;;;5038359;28;20563;-61
2023/07/10 14:46:59;;;;;;;18.13;4.05;;;;;;;;;;5042096;28;20085;-69
2023/07/10 14:50:39;;;;;;;17.05;3.75;;;;;;;;;;5038595;28;20044;-70
2023/07/10 14:54:20;;;;;;;26.20;4.47;;;;;;;;;;5038671;28;20137;-72
2023/07/10 14:58:00;;;;;;;13.88;3.88;;;;;;;;;;5033929;28;20048;-68
2023/07/10 15:01:41;;;;;;;14.57;3.50;;;;;;;;;;5031257;28;20421;-69
2023/07/10 15:04:41;;;;;;;18.77;3.53;;;;;;;;;;5033133;28;20052;-70
2023/07/10 15:07:11;;;;;;;19.25;4.30;;;;;;;;;;5035255;28;20045;-67
2023/07/10 15:09:39;;;;;;;17.58;3.70;;;;;;;;;;5035241;28;20063;-70
2023/07/10 15:12:17;;;;;;;18.15;4.07;;;;;;;;;;5042168;28;20041;-68
2023/07/10 15:14:44;;;;;;;20.08;3.92;;;;;;;;;;5039008;28;20056;-66
2023/07/10 15:17:26;;;;;;;16.05;4.03;;;;;;;;;;5032375;28;20428;-68
2023/07/10 15:19:52;;;;;;;13.43;4.07;;;;;;;;;;5030715;28;20055;-66
2023/07/10 15:22:21;;;;;;;15.18;3.83;;;;;;;;;;5028148;28;20068;-62
2023/07/10 15:24:48;;;;;;;21.50;4.32;;;;;;;;;;5035688;28;20045;-62
2023/07/10 15:27:15;;;;;;;15.00;3.50;;;;;;;;;;5030286;28;20056;-61
2023/07/10 15:29:42;;;;;;;16.30;4.05;;;;;;;;;;5044412;28;20390;-59
2023/07/10 15:32:08;;;;;;;18.77;3.88;;;;;;;;;;5040903;28;20033;-60
2023/07/10 15:34:38;;;;;;;15.93;3.90;;;;;;;;;;5042238;28;20041;-62
2023/07/10 15:37:05;;;;;;;19.60;4.00;;;;;;;;;;5041908;28;20264;-61
2023/07/10 15:39:31;;;;;;;11.52;3.72;;;;;;;;;;5042336;28;20048;-62
2023/07/10 15:41:57;;;;;;;16.73;4.13;;;;;;;;;;5040616;28;20126;-61
2023/07/10 15:44:23;;;;;;;18.60;3.92;;;;;;;;;;5039692;28;20973;-62
2023/07/10 15:46:49;;;;;;;17.92;4.50;;;;;;;;;;5032397;28;20106;-60
2023/07/10 15:49:24;;;;;;;15.18;4.18;;;;;;;;;;5034151;28;20053;-58
2023/07/10 15:51:53;;;;;;;14.75;3.92;;;;;;;;;;5036411;28;20056;-57
2023/07/10 15:54:19;;;;;;;11.48;3.60;;;;;;;;;;5007824;28;20092;-63
2023/07/10 15:56:46;;;;;;;16.17;3.97;;;;;;;;;;5030339;28;21271;-61
2023/07/10 15:59:19;;;;;;;21.25;4.20;;;;;;;;;;5038427;28;20124;-60
2023/07/10 16:01:47;;;;;;;21.42;3.80;;;;;;;;;;5045393;28;20061;-59
2023/07/10 16:04:24;;;;;;;15.57;4.10;;;;;;;;;;5044787;28;20049;-61
2023/07/10 16:06:51;;;;;;;15.02;3.90;;;;;;;;;;5040151;28;20049;-61
2023/07/10 16:09:18;;;;;;;14.63;4.13;;;;;;;;;;5030615;28;20049;-60
2023/07/10 16:11:45;;;;;;;22.63;4.40;;;;;;;;;;5043723;28;20049;-61
2023/07/10 16:14:16;;;;;;;17.23;4.50;;;;;;;;;;5043931;28;20041;-62
2023/07/10 16:16:43;;;;;;;13.02;3.58;;;;;;;;;;5031360;28;20053;-63
2023/07/10 16:19:11;;;;;;;16.83;4.13;;;;;;;;;;5038761;28;20048;-61
2023/07/10 16:21:38;;;;;;;20.63;4.55;;;;;;;;;;5041646;28;20185;-60
2023/07/10 16:24:16;;;;;;;17.88;4.35;;;;;;;;;;5035951;28;20064;-64
2023/07/10 16:26:42;;;;;;;17.92;3.88;;;;;;;;;;5029254;28;20029;-60
2023/07/10 16:29:09;;;;;;;23.00;4.15;;;;;;;;;;5033700;28;20504;-59
2023/07/10 16:31:37;;;;;;;19.30;3.85;;;;;;;;;;5014802;28;20193;-60
2023/07/10 16:34:04;;;;;;;17.92;4.13;;;;;;;;;;5039464;28;20056;-57
2023/07/10 16:36:31;;;;;;;17.05;4.07;;;;;;;;;;5036808;28;20057;-61
2023/07/10 16:38:57;;;;;;;20.75;4.03;;;;;;;;;;5028991;28;20577;-58
2023/07/10 16:41:23;;;;;;;16.00;4.43;;;;;;;;;;5032777;28;20065;-59
2023/07/10 16:43:50;;;;;;;18.52;4.00;;;;;;;;;;5029037;28;20045;-62
2023/07/10 16:46:17;;;;;;;15.07;3.90;;;;;;;;;;5028126;28;20060;-60
2023/07/10 16:48:46;;;;;;;21.60;4.22;;;;;;;;;;5018611;28;20067;-60
2023/07/10 16:51:32;;;;;;;16.85;4.43;;;;;;;;;;5037155;28;20049;-61
2023/07/10 16:54:00;;;;;;;18.35;3.78;;;;;;;;;;5045554;28;20053;-60
2023/07/10 16:56:27;;;;;;;22.58;4.63;;;;;;;;;;5042380;28;20519;-61
2023/07/10 16:58:54;;;;;;;21.75;4.80;;;;;;;;;;5045020;28;20048;-63
2023/07/10 17:01:29;;;;;;;15.38;3.95;;;;;;;;;;5037809;28;20060;-59
2023/07/10 17:04:00;;;;;;;23.00;4.13;;;;;;;;;;5042761;28;20045;-62
2023/07/10 17:06:29;;;;;;;20.33;4.28;;;;;;;;;;5036222;28;20049;-62
2023/07/10 17:08:55;;;;;;;26.83;4.50;;;;;;;;;;5041311;28;20441;-60
2023/07/10 17:11:30;;;;;;;19.45;4.55;;;;;;;;;;5044826;28;20045;-59
2023/07/10 17:13:56;;;;;;;19.23;4.28;;;;;;;;;;5029465;28;20053;-58